KBYI/BYI METAR and TAF weather

Enter ICAO airport designator
Station Type Date Time Source
KBYI METAR 2018/10/21 04:53 UTC NOAA

KBYI 210453Z AUTO 09003KT 10SM CLR 08/01 A3017 RMK AO2 SLP206 T00830011


Station Type Date Time Source
KBYI Decoded METAR 2018/10/21 04:53 UTC NOAA

BURLEY MUNICIPAL AIRPORT, ID, United States (KBYI) 42-33N 113-46W 1264M
Oct 21, 2018 - 12:53 AM EDT / 2018.10.21 0453 UTC
Wind: from the E (090 degrees) at 3 MPH (3 KT):0
Visibility: 10 mile(s):0
Sky conditions: clear
Temperature: 46.9 F (8.3 C)
Dew Point: 34.0 F (1.1 C)
Relative Humidity: 60%
Pressure (altimeter): 30.17 in. Hg (1021 hPa)
ob: KBYI 210453Z AUTO 09003KT 10SM CLR 08/01 A3017 RMK AO2 SLP206 T00830011
cycle: 5

Station Type Date Time Source
KBYI TAF 2018/10/21 06:22 UTC NOAA

TAF KBYI 210520Z 2106/2206 VRB06KT P6SM SKC
FM211500 16005KT P6SM FEW070 SCT130
FM220300 VRB06KT P6SM VCSH SCT070 BKN110


Example: see airport list